sensor_id;sensor_type;location;lat;lon;timestamp;P1;durP1;ratioP1;P2;durP2;ratioP2
16304;SDS011;8261;47.678;-122.174;2023-03-12T00:01:51;1.47;;;0.83;;
16304;SDS011;8261;47.678;-122.174;2023-03-12T00:04:22;4.53;;;1.17;;
16304;SDS011;8261;47.678;-122.174;2023-03-12T00:06:56;2.27;;;0.90;;
16304;SDS011;8261;47.678;-122.174;2023-03-12T00:09:27;4.60;;;1.30;;
16304;SDS011;8261;47.678;-122.174;2023-03-12T00:11:58;4.27;;;1.33;;
16304;SDS011;8261;47.678;-122.174;2023-03-12T00:14:29;2.37;;;0.97;;
16304;SDS011;8261;47.678;-122.174;2023-03-12T00:17:01;3.40;;;1.30;;
16304;SDS011;8261;47.678;-122.174;2023-03-12T00:19:32;4.20;;;1.17;;
16304;SDS011;8261;47.678;-122.174;2023-03-12T00:22:04;3.43;;;1.10;;
16304;SDS011;8261;47.678;-122.174;2023-03-12T00:24:36;3.60;;;1.50;;
16304;SDS011;8261;47.678;-122.174;2023-03-12T00:27:06;4.57;;;1.13;;
16304;SDS011;8261;47.678;-122.174;2023-03-12T00:29:38;2.60;;;1.20;;
16304;SDS011;8261;47.678;-122.174;2023-03-12T00:32:09;3.63;;;1.10;;
16304;SDS011;8261;47.678;-122.174;2023-03-12T00:34:41;5.13;;;1.17;;
16304;SDS011;8261;47.678;-122.174;2023-03-12T00:37:14;3.80;;;1.23;;
16304;SDS011;8261;47.678;-122.174;2023-03-12T00:39:45;5.37;;;1.20;;
16304;SDS011;8261;47.678;-122.174;2023-03-12T00:42:16;5.43;;;1.47;;
16304;SDS011;8261;47.678;-122.174;2023-03-12T00:44:48;2.63;;;1.10;;
16304;SDS011;8261;47.678;-122.174;2023-03-12T00:47:19;2.40;;;1.10;;
16304;SDS011;8261;47.678;-122.174;2023-03-12T00:49:50;4.10;;;1.33;;
16304;SDS011;8261;47.678;-122.174;2023-03-12T00:52:23;3.53;;;1.10;;
16304;SDS011;8261;47.678;-122.174;2023-03-12T00:54:56;4.23;;;1.50;;
16304;SDS011;8261;47.678;-122.174;2023-03-12T00:57:28;3.03;;;1.10;;
16304;SDS011;8261;47.678;-122.174;2023-03-12T00:59:58;3.20;;;1.10;;
16304;SDS011;8261;47.678;-122.174;2023-03-12T01:02:30;3.37;;;1.30;;
16304;SDS011;8261;47.678;-122.174;2023-03-12T01:05:02;5.13;;;1.80;;
16304;SDS011;8261;47.678;-122.174;2023-03-12T01:07:35;2.07;;;1.10;;
16304;SDS011;8261;47.678;-122.174;2023-03-12T01:10:07;4.53;;;1.47;;
16304;SDS011;8261;47.678;-122.174;2023-03-12T01:12:40;5.43;;;1.87;;
16304;SDS011;8261;47.678;-122.174;2023-03-12T01:15:12;2.70;;;1.10;;
16304;SDS011;8261;47.678;-122.174;2023-03-12T01:17:45;3.00;;;1.20;;
16304;SDS011;8261;47.678;-122.174;2023-03-12T01:20:17;5.03;;;1.43;;
16304;SDS011;8261;47.678;-122.174;2023-03-12T01:22:52;3.27;;;1.13;;
16304;SDS011;8261;47.678;-122.174;2023-03-12T01:25:22;3.13;;;1.30;;
16304;SDS011;8261;47.678;-122.174;2023-03-12T01:27:54;3.93;;;1.30;;
16304;SDS011;8261;47.678;-122.174;2023-03-12T01:30:25;5.17;;;1.70;;
16304;SDS011;8261;47.678;-122.174;2023-03-12T01:32:56;3.63;;;1.43;;
16304;SDS011;8261;47.678;-122.174;2023-03-12T01:35:28;3.40;;;1.30;;
16304;SDS011;8261;47.678;-122.174;2023-03-12T01:38:01;3.97;;;1.40;;
16304;SDS011;8261;47.678;-122.174;2023-03-12T01:40:34;4.13;;;1.50;;
16304;SDS011;8261;47.678;-122.174;2023-03-12T01:43:22;6.10;;;1.67;;
16304;SDS011;8261;47.678;-122.174;2023-03-12T01:45:59;5.20;;;1.47;;
16304;SDS011;8261;47.678;-122.174;2023-03-12T01:48:37;2.40;;;1.40;;
16304;SDS011;8261;47.678;-122.174;2023-03-12T01:51:11;4.43;;;1.50;;
16304;SDS011;8261;47.678;-122.174;2023-03-12T01:53:46;3.90;;;1.33;;
16304;SDS011;8261;47.678;-122.174;2023-03-12T01:56:19;7.77;;;1.83;;
16304;SDS011;8261;47.678;-122.174;2023-03-12T01:58:51;5.30;;;1.50;;
16304;SDS011;8261;47.678;-122.174;2023-03-12T02:01:24;2.93;;;1.27;;
16304;SDS011;8261;47.678;-122.174;2023-03-12T02:03:56;6.17;;;1.57;;
16304;SDS011;8261;47.678;-122.174;2023-03-12T02:06:32;3.23;;;1.30;;
16304;SDS011;8261;47.678;-122.174;2023-03-12T02:09:08;4.57;;;1.40;;
16304;SDS011;8261;47.678;-122.174;2023-03-12T02:11:40;8.00;;;1.90;;
16304;SDS011;8261;47.678;-122.174;2023-03-12T02:14:11;5.90;;;1.40;;
16304;SDS011;8261;47.678;-122.174;2023-03-12T02:16:43;6.73;;;1.57;;
16304;SDS011;8261;47.678;-122.174;2023-03-12T02:19:16;4.77;;;1.30;;
16304;SDS011;8261;47.678;-122.174;2023-03-12T02:21:53;5.73;;;1.50;;
16304;SDS011;8261;47.678;-122.174;2023-03-12T02:24:27;5.20;;;1.80;;
16304;SDS011;8261;47.678;-122.174;2023-03-12T02:27:05;3.77;;;1.77;;
16304;SDS011;8261;47.678;-122.174;2023-03-12T02:29:40;7.13;;;1.80;;
16304;SDS011;8261;47.678;-122.174;2023-03-12T02:32:16;4.80;;;1.67;;
16304;SDS011;8261;47.678;-122.174;2023-03-12T02:34:52;5.03;;;1.43;;
16304;SDS011;8261;47.678;-122.174;2023-03-12T02:37:24;4.63;;;1.30;;
16304;SDS011;8261;47.678;-122.174;2023-03-12T02:39:59;3.73;;;1.43;;
16304;SDS011;8261;47.678;-122.174;2023-03-12T02:42:37;4.53;;;1.80;;
16304;SDS011;8261;47.678;-122.174;2023-03-12T02:45:08;3.80;;;1.50;;
16304;SDS011;8261;47.678;-122.174;2023-03-12T02:47:43;5.67;;;1.53;;
16304;SDS011;8261;47.678;-122.174;2023-03-12T02:50:14;4.03;;;1.50;;
16304;SDS011;8261;47.678;-122.174;2023-03-12T02:52:45;3.83;;;1.70;;
16304;SDS011;8261;47.678;-122.174;2023-03-12T02:55:16;4.30;;;1.53;;
16304;SDS011;8261;47.678;-122.174;2023-03-12T02:57:49;7.07;;;1.57;;
16304;SDS011;8261;47.678;-122.174;2023-03-12T03:00:20;4.63;;;2.13;;
16304;SDS011;8261;47.678;-122.174;2023-03-12T03:02:52;3.47;;;1.77;;
16304;SDS011;8261;47.678;-122.174;2023-03-12T03:05:22;5.23;;;2.00;;
16304;SDS011;8261;47.678;-122.174;2023-03-12T03:07:53;5.57;;;2.00;;
16304;SDS011;8261;47.678;-122.174;2023-03-12T03:10:24;5.23;;;1.33;;
16304;SDS011;8261;47.678;-122.174;2023-03-12T03:12:57;2.77;;;1.50;;
16304;SDS011;8261;47.678;-122.174;2023-03-12T03:15:28;4.63;;;1.47;;
16304;SDS011;8261;47.678;-122.174;2023-03-12T03:17:59;2.67;;;1.10;;
16304;SDS011;8261;47.678;-122.174;2023-03-12T03:20:31;2.40;;;1.00;;
16304;SDS011;8261;47.678;-122.174;2023-03-12T03:23:02;4.03;;;1.47;;
16304;SDS011;8261;47.678;-122.174;2023-03-12T03:25:33;4.30;;;1.33;;
16304;SDS011;8261;47.678;-122.174;2023-03-12T03:28:06;3.47;;;1.20;;
16304;SDS011;8261;47.678;-122.174;2023-03-12T03:30:37;4.13;;;1.60;;
16304;SDS011;8261;47.678;-122.174;2023-03-12T03:33:08;4.17;;;1.70;;
16304;SDS011;8261;47.678;-122.174;2023-03-12T03:35:39;2.60;;;1.40;;
16304;SDS011;8261;47.678;-122.174;2023-03-12T03:38:11;4.03;;;2.00;;
16304;SDS011;8261;47.678;-122.174;2023-03-12T03:40:42;3.40;;;1.53;;
16304;SDS011;8261;47.678;-122.174;2023-03-12T03:43:17;4.27;;;1.70;;
16304;SDS011;8261;47.678;-122.174;2023-03-12T03:45:54;2.53;;;1.60;;
16304;SDS011;8261;47.678;-122.174;2023-03-12T03:48:27;3.53;;;1.53;;
16304;SDS011;8261;47.678;-122.174;2023-03-12T03:50:59;3.73;;;1.60;;
16304;SDS011;8261;47.678;-122.174;2023-03-12T03:53:33;4.87;;;2.90;;
16304;SDS011;8261;47.678;-122.174;2023-03-12T03:56:05;6.00;;;2.90;;
16304;SDS011;8261;47.678;-122.174;2023-03-12T03:58:39;5.83;;;2.87;;
16304;SDS011;8261;47.678;-122.174;2023-03-12T04:01:11;4.80;;;2.87;;
16304;SDS011;8261;47.678;-122.174;2023-03-12T04:03:43;3.27;;;2.10;;
16304;SDS011;8261;47.678;-122.174;2023-03-12T04:06:15;6.57;;;2.17;;
16304;SDS011;8261;47.678;-122.174;2023-03-12T04:08:46;7.77;;;2.47;;
16304;SDS011;8261;47.678;-122.174;2023-03-12T04:11:18;3.27;;;2.10;;
16304;SDS011;8261;47.678;-122.174;2023-03-12T04:13:52;3.77;;;2.23;;
16304;SDS011;8261;47.678;-122.174;2023-03-12T04:16:25;7.27;;;2.73;;
16304;SDS011;8261;47.678;-122.174;2023-03-12T04:18:56;4.63;;;2.90;;
16304;SDS011;8261;47.678;-122.174;2023-03-12T04:21:28;4.97;;;2.27;;
16304;SDS011;8261;47.678;-122.174;2023-03-12T04:23:59;3.57;;;2.63;;
16304;SDS011;8261;47.678;-122.174;2023-03-12T04:26:33;4.47;;;2.90;;
16304;SDS011;8261;47.678;-122.174;2023-03-12T04:29:07;4.23;;;2.30;;
16304;SDS011;8261;47.678;-122.174;2023-03-12T04:31:39;5.87;;;2.90;;
16304;SDS011;8261;47.678;-122.174;2023-03-12T04:34:11;5.03;;;3.20;;
16304;SDS011;8261;47.678;-122.174;2023-03-12T04:36:43;4.17;;;2.97;;
16304;SDS011;8261;47.678;-122.174;2023-03-12T04:39:16;4.40;;;2.73;;
16304;SDS011;8261;47.678;-122.174;2023-03-12T04:41:48;4.30;;;2.80;;
16304;SDS011;8261;47.678;-122.174;2023-03-12T04:44:22;7.83;;;2.67;;
16304;SDS011;8261;47.678;-122.174;2023-03-12T04:46:54;6.00;;;2.40;;
16304;SDS011;8261;47.678;-122.174;2023-03-12T04:49:26;5.33;;;2.27;;
16304;SDS011;8261;47.678;-122.174;2023-03-12T04:51:58;6.73;;;2.97;;
16304;SDS011;8261;47.678;-122.174;2023-03-12T04:54:29;8.07;;;2.73;;
16304;SDS011;8261;47.678;-122.174;2023-03-12T04:57:02;6.63;;;2.57;;
16304;SDS011;8261;47.678;-122.174;2023-03-12T04:59:36;7.60;;;2.93;;
16304;SDS011;8261;47.678;-122.174;2023-03-12T05:02:07;6.23;;;3.00;;
16304;SDS011;8261;47.678;-122.174;2023-03-12T05:04:38;5.33;;;3.03;;
16304;SDS011;8261;47.678;-122.174;2023-03-12T05:07:11;8.93;;;4.07;;
16304;SDS011;8261;47.678;-122.174;2023-03-12T05:09:42;7.23;;;3.77;;
16304;SDS011;8261;47.678;-122.174;2023-03-12T05:12:14;5.60;;;3.90;;
16304;SDS011;8261;47.678;-122.174;2023-03-12T05:14:50;8.37;;;4.93;;
16304;SDS011;8261;47.678;-122.174;2023-03-12T05:17:22;8.43;;;5.50;;
16304;SDS011;8261;47.678;-122.174;2023-03-12T05:19:54;6.77;;;4.73;;
16304;SDS011;8261;47.678;-122.174;2023-03-12T05:22:25;6.60;;;4.50;;
16304;SDS011;8261;47.678;-122.174;2023-03-12T05:24:56;5.83;;;4.03;;
16304;SDS011;8261;47.678;-122.174;2023-03-12T05:27:28;6.73;;;4.17;;
16304;SDS011;8261;47.678;-122.174;2023-03-12T05:30:02;4.63;;;3.07;;
16304;SDS011;8261;47.678;-122.174;2023-03-12T05:32:37;7.10;;;2.90;;
16304;SDS011;8261;47.678;-122.174;2023-03-12T05:35:09;6.27;;;3.37;;
16304;SDS011;8261;47.678;-122.174;2023-03-12T05:37:41;7.17;;;4.20;;
16304;SDS011;8261;47.678;-122.174;2023-03-12T05:40:14;6.23;;;3.43;;
16304;SDS011;8261;47.678;-122.174;2023-03-12T05:42:46;6.97;;;3.50;;
16304;SDS011;8261;47.678;-122.174;2023-03-12T05:45:19;8.23;;;3.63;;
16304;SDS011;8261;47.678;-122.174;2023-03-12T05:47:52;5.50;;;3.37;;
16304;SDS011;8261;47.678;-122.174;2023-03-12T05:50:26;6.03;;;3.10;;
16304;SDS011;8261;47.678;-122.174;2023-03-12T05:52:57;10.87;;;5.83;;
16304;SDS011;8261;47.678;-122.174;2023-03-12T05:55:29;9.17;;;4.57;;
16304;SDS011;8261;47.678;-122.174;2023-03-12T05:58:04;6.17;;;3.80;;
16304;SDS011;8261;47.678;-122.174;2023-03-12T06:00:39;5.97;;;3.00;;
16304;SDS011;8261;47.678;-122.174;2023-03-12T06:03:11;6.87;;;3.37;;
16304;SDS011;8261;47.678;-122.174;2023-03-12T06:05:42;5.83;;;3.47;;
16304;SDS011;8261;47.678;-122.174;2023-03-12T06:08:14;7.33;;;3.43;;
16304;SDS011;8261;47.678;-122.174;2023-03-12T06:10:46;5.90;;;3.60;;
16304;SDS011;8261;47.678;-122.174;2023-03-12T06:13:21;8.63;;;3.90;;
16304;SDS011;8261;47.678;-122.174;2023-03-12T06:16:02;9.43;;;3.73;;
16304;SDS011;8261;47.678;-122.174;2023-03-12T06:18:36;6.30;;;3.53;;
16304;SDS011;8261;47.678;-122.174;2023-03-12T06:21:09;9.57;;;4.30;;
16304;SDS011;8261;47.678;-122.174;2023-03-12T06:23:43;8.70;;;3.30;;
16304;SDS011;8261;47.678;-122.174;2023-03-12T06:26:15;5.60;;;3.40;;
16304;SDS011;8261;47.678;-122.174;2023-03-12T06:28:48;6.90;;;4.27;;
16304;SDS011;8261;47.678;-122.174;2023-03-12T06:31:23;5.53;;;3.90;;
16304;SDS011;8261;47.678;-122.174;2023-03-12T06:33:55;5.33;;;2.93;;
16304;SDS011;8261;47.678;-122.174;2023-03-12T06:36:27;5.37;;;3.10;;
16304;SDS011;8261;47.678;-122.174;2023-03-12T06:38:58;4.97;;;3.00;;
16304;SDS011;8261;47.678;-122.174;2023-03-12T06:41:33;5.70;;;2.73;;
16304;SDS011;8261;47.678;-122.174;2023-03-12T06:44:06;5.73;;;2.70;;
16304;SDS011;8261;47.678;-122.174;2023-03-12T06:46:41;4.13;;;2.90;;
16304;SDS011;8261;47.678;-122.174;2023-03-12T06:49:13;4.83;;;2.90;;
16304;SDS011;8261;47.678;-122.174;2023-03-12T06:51:44;7.27;;;2.97;;
16304;SDS011;8261;47.678;-122.174;2023-03-12T06:54:17;7.17;;;3.20;;
16304;SDS011;8261;47.678;-122.174;2023-03-12T06:56:48;3.87;;;2.63;;
16304;SDS011;8261;47.678;-122.174;2023-03-12T06:59:20;7.63;;;3.20;;
16304;SDS011;8261;47.678;-122.174;2023-03-12T07:01:54;4.90;;;2.73;;
16304;SDS011;8261;47.678;-122.174;2023-03-12T07:04:26;4.77;;;2.90;;
16304;SDS011;8261;47.678;-122.174;2023-03-12T07:06:58;5.43;;;3.10;;
16304;SDS011;8261;47.678;-122.174;2023-03-12T07:09:29;5.90;;;3.60;;
16304;SDS011;8261;47.678;-122.174;2023-03-12T07:12:01;8.27;;;4.13;;
16304;SDS011;8261;47.678;-122.174;2023-03-12T07:14:32;8.50;;;4.23;;
16304;SDS011;8261;47.678;-122.174;2023-03-12T07:17:06;4.60;;;3.20;;
16304;SDS011;8261;47.678;-122.174;2023-03-12T07:19:39;4.37;;;2.93;;
16304;SDS011;8261;47.678;-122.174;2023-03-12T07:22:10;6.20;;;3.63;;
16304;SDS011;8261;47.678;-122.174;2023-03-12T07:24:45;3.97;;;2.80;;
16304;SDS011;8261;47.678;-122.174;2023-03-12T07:27:18;6.13;;;3.10;;
16304;SDS011;8261;47.678;-122.174;2023-03-12T07:29:49;4.10;;;2.30;;
16304;SDS011;8261;47.678;-122.174;2023-03-12T07:32:23;3.53;;;2.07;;
16304;SDS011;8261;47.678;-122.174;2023-03-12T07:34:55;3.77;;;2.20;;
16304;SDS011;8261;47.678;-122.174;2023-03-12T07:37:27;4.63;;;2.20;;
16304;SDS011;8261;47.678;-122.174;2023-03-12T07:39:59;5.67;;;2.00;;
16304;SDS011;8261;47.678;-122.174;2023-03-12T07:42:34;6.60;;;2.03;;
16304;SDS011;8261;47.678;-122.174;2023-03-12T07:45:06;4.10;;;2.30;;
16304;SDS011;8261;47.678;-122.174;2023-03-12T07:47:41;6.60;;;1.83;;
16304;SDS011;8261;47.678;-122.174;2023-03-12T07:50:14;4.43;;;2.17;;
16304;SDS011;8261;47.678;-122.174;2023-03-12T07:52:47;3.00;;;2.10;;
16304;SDS011;8261;47.678;-122.174;2023-03-12T07:55:19;3.57;;;2.03;;
16304;SDS011;8261;47.678;-122.174;2023-03-12T07:57:51;4.07;;;2.37;;
16304;SDS011;8261;47.678;-122.174;2023-03-12T08:00:25;4.87;;;2.40;;
16304;SDS011;8261;47.678;-122.174;2023-03-12T08:02:59;3.37;;;2.00;;
16304;SDS011;8261;47.678;-122.174;2023-03-12T08:05:32;5.00;;;2.10;;
16304;SDS011;8261;47.678;-122.174;2023-03-12T08:08:04;2.83;;;1.97;;
16304;SDS011;8261;47.678;-122.174;2023-03-12T08:10:38;4.60;;;1.93;;
16304;SDS011;8261;47.678;-122.174;2023-03-12T08:13:10;5.30;;;2.03;;
16304;SDS011;8261;47.678;-122.174;2023-03-12T08:15:42;3.00;;;1.80;;
16304;SDS011;8261;47.678;-122.174;2023-03-12T08:18:17;6.83;;;2.13;;
16304;SDS011;8261;47.678;-122.174;2023-03-12T08:20:49;2.97;;;2.00;;
16304;SDS011;8261;47.678;-122.174;2023-03-12T08:23:22;2.87;;;1.97;;
16304;SDS011;8261;47.678;-122.174;2023-03-12T08:25:54;5.47;;;2.00;;
16304;SDS011;8261;47.678;-122.174;2023-03-12T08:28:25;4.97;;;2.17;;
16304;SDS011;8261;47.678;-122.174;2023-03-12T08:30:58;3.63;;;2.10;;
16304;SDS011;8261;47.678;-122.174;2023-03-12T08:33:33;3.50;;;2.20;;
16304;SDS011;8261;47.678;-122.174;2023-03-12T08:36:08;4.10;;;2.10;;
16304;SDS011;8261;47.678;-122.174;2023-03-12T08:38:40;4.23;;;2.03;;
16304;SDS011;8261;47.678;-122.174;2023-03-12T08:41:12;5.00;;;2.23;;
16304;SDS011;8261;47.678;-122.174;2023-03-12T08:43:43;6.17;;;2.20;;
16304;SDS011;8261;47.678;-122.174;2023-03-12T08:46:15;5.33;;;2.60;;
16304;SDS011;8261;47.678;-122.174;2023-03-12T08:48:49;5.07;;;2.23;;
16304;SDS011;8261;47.678;-122.174;2023-03-12T08:51:21;5.20;;;2.47;;
16304;SDS011;8261;47.678;-122.174;2023-03-12T08:53:52;3.90;;;2.10;;
16304;SDS011;8261;47.678;-122.174;2023-03-12T08:56:24;5.47;;;2.13;;
16304;SDS011;8261;47.678;-122.174;2023-03-12T08:58:56;2.70;;;1.87;;
16304;SDS011;8261;47.678;-122.174;2023-03-12T09:01:28;3.13;;;1.63;;
16304;SDS011;8261;47.678;-122.174;2023-03-12T09:04:02;2.87;;;1.77;;
16304;SDS011;8261;47.678;-122.174;2023-03-12T09:06:34;3.10;;;1.63;;
16304;SDS011;8261;47.678;-122.174;2023-03-12T09:09:05;1.83;;;1.50;;
16304;SDS011;8261;47.678;-122.174;2023-03-12T09:11:37;2.03;;;1.40;;
16304;SDS011;8261;47.678;-122.174;2023-03-12T09:14:10;2.00;;;1.30;;
16304;SDS011;8261;47.678;-122.174;2023-03-12T09:17:02;3.67;;;1.40;;
16304;SDS011;8261;47.678;-122.174;2023-03-12T09:19:36;4.13;;;1.23;;
16304;SDS011;8261;47.678;-122.174;2023-03-12T09:22:09;2.20;;;1.33;;
16304;SDS011;8261;47.678;-122.174;2023-03-12T09:24:41;1.87;;;1.40;;
16304;SDS011;8261;47.678;-122.174;2023-03-12T09:27:13;2.50;;;1.37;;
16304;SDS011;8261;47.678;-122.174;2023-03-12T09:29:44;1.60;;;1.50;;
16304;SDS011;8261;47.678;-122.174;2023-03-12T09:32:26;3.13;;;1.90;;
16304;SDS011;8261;47.678;-122.174;2023-03-12T09:35:00;2.93;;;1.90;;
16304;SDS011;8261;47.678;-122.174;2023-03-12T09:37:32;1.80;;;1.50;;
16304;SDS011;8261;47.678;-122.174;2023-03-12T09:40:04;2.73;;;1.30;;
16304;SDS011;8261;47.678;-122.174;2023-03-12T09:42:40;1.77;;;1.40;;
16304;SDS011;8261;47.678;-122.174;2023-03-12T09:45:16;2.10;;;1.43;;
16304;SDS011;8261;47.678;-122.174;2023-03-12T09:47:51;2.53;;;1.30;;
16304;SDS011;8261;47.678;-122.174;2023-03-12T09:50:28;1.43;;;1.33;;
16304;SDS011;8261;47.678;-122.174;2023-03-12T09:53:01;1.60;;;1.27;;
16304;SDS011;8261;47.678;-122.174;2023-03-12T09:55:39;1.73;;;1.23;;
16304;SDS011;8261;47.678;-122.174;2023-03-12T09:58:12;2.13;;;1.50;;
16304;SDS011;8261;47.678;-122.174;2023-03-12T10:00:48;1.93;;;1.47;;
16304;SDS011;8261;47.678;-122.174;2023-03-12T10:03:22;3.13;;;1.73;;
16304;SDS011;8261;47.678;-122.174;2023-03-12T10:06:09;2.03;;;1.70;;
16304;SDS011;8261;47.678;-122.174;2023-03-12T10:08:52;3.33;;;1.93;;
16304;SDS011;8261;47.678;-122.174;2023-03-12T10:11:35;4.97;;;2.10;;
16304;SDS011;8261;47.678;-122.174;2023-03-12T10:14:17;3.23;;;1.80;;
16304;SDS011;8261;47.678;-122.174;2023-03-12T10:17:04;2.23;;;1.60;;
16304;SDS011;8261;47.678;-122.174;2023-03-12T10:19:54;2.30;;;1.70;;
16304;SDS011;8261;47.678;-122.174;2023-03-12T10:22:45;2.93;;;1.80;;
16304;SDS011;8261;47.678;-122.174;2023-03-12T10:25:21;3.67;;;2.23;;
16304;SDS011;8261;47.678;-122.174;2023-03-12T10:27:58;2.60;;;1.63;;
16304;SDS011;8261;47.678;-122.174;2023-03-12T10:30:35;2.53;;;1.40;;
16304;SDS011;8261;47.678;-122.174;2023-03-12T10:33:12;1.93;;;1.40;;
16304;SDS011;8261;47.678;-122.174;2023-03-12T10:35:46;2.17;;;1.30;;
16304;SDS011;8261;47.678;-122.174;2023-03-12T10:38:21;1.63;;;1.20;;
16304;SDS011;8261;47.678;-122.174;2023-03-12T10:40:57;2.77;;;1.30;;
16304;SDS011;8261;47.678;-122.174;2023-03-12T10:43:29;1.67;;;1.40;;
16304;SDS011;8261;47.678;-122.174;2023-03-12T10:46:05;5.17;;;1.73;;
16304;SDS011;8261;47.678;-122.174;2023-03-12T10:51:56;3.57;;;2.20;;
16304;SDS011;8261;47.678;-122.174;2023-03-12T10:54:33;3.33;;;2.20;;
16304;SDS011;8261;47.678;-122.174;2023-03-12T10:57:08;2.53;;;1.83;;
16304;SDS011;8261;47.678;-122.174;2023-03-12T10:59:40;4.67;;;2.03;;
16304;SDS011;8261;47.678;-122.174;2023-03-12T11:02:30;3.67;;;1.80;;
16304;SDS011;8261;47.678;-122.174;2023-03-12T11:05:08;2.03;;;1.37;;
16304;SDS011;8261;47.678;-122.174;2023-03-12T11:07:51;4.07;;;2.00;;
16304;SDS011;8261;47.678;-122.174;2023-03-12T11:10:26;3.70;;;1.30;;
16304;SDS011;8261;47.678;-122.174;2023-03-12T11:13:21;1.40;;;1.20;;
16304;SDS011;8261;47.678;-122.174;2023-03-12T11:15:55;1.17;;;0.97;;
16304;SDS011;8261;47.678;-122.174;2023-03-12T11:18:32;3.13;;;1.20;;
16304;SDS011;8261;47.678;-122.174;2023-03-12T11:21:16;2.67;;;1.30;;
16304;SDS011;8261;47.678;-122.174;2023-03-12T11:24:06;2.00;;;1.17;;
16304;SDS011;8261;47.678;-122.174;2023-03-12T11:26:46;1.37;;;1.10;;
16304;SDS011;8261;47.678;-122.174;2023-03-12T11:29:23;2.10;;;1.20;;
16304;SDS011;8261;47.678;-122.174;2023-03-12T11:32:01;2.10;;;1.23;;
16304;SDS011;8261;47.678;-122.174;2023-03-12T11:34:37;1.60;;;1.23;;
16304;SDS011;8261;47.678;-122.174;2023-03-12T11:37:10;2.80;;;1.43;;
16304;SDS011;8261;47.678;-122.174;2023-03-12T11:40:01;2.60;;;1.60;;
16304;SDS011;8261;47.678;-122.174;2023-03-12T11:42:48;1.30;;;1.13;;
16304;SDS011;8261;47.678;-122.174;2023-03-12T11:45:30;1.60;;;1.40;;
16304;SDS011;8261;47.678;-122.174;2023-03-12T11:48:10;1.80;;;1.30;;
16304;SDS011;8261;47.678;-122.174;2023-03-12T11:50:52;2.53;;;1.20;;
16304;SDS011;8261;47.678;-122.174;2023-03-12T11:53:39;2.43;;;1.33;;
16304;SDS011;8261;47.678;-122.174;2023-03-12T11:56:26;2.13;;;1.33;;
16304;SDS011;8261;47.678;-122.174;2023-03-12T11:59:11;2.90;;;1.30;;
16304;SDS011;8261;47.678;-122.174;2023-03-12T12:01:55;1.57;;;1.33;;
16304;SDS011;8261;47.678;-122.174;2023-03-12T12:04:45;3.03;;;1.53;;
16304;SDS011;8261;47.678;-122.174;2023-03-12T12:07:41;1.70;;;1.00;;
16304;SDS011;8261;47.678;-122.174;2023-03-12T12:10:23;2.43;;;1.60;;
16304;SDS011;8261;47.678;-122.174;2023-03-12T12:13:06;3.23;;;1.53;;
16304;SDS011;8261;47.678;-122.174;2023-03-12T12:15:45;2.40;;;1.40;;
16304;SDS011;8261;47.678;-122.174;2023-03-12T12:18:28;2.17;;;1.50;;
16304;SDS011;8261;47.678;-122.174;2023-03-12T12:21:17;2.60;;;1.23;;
16304;SDS011;8261;47.678;-122.174;2023-03-12T12:24:05;2.73;;;1.27;;
16304;SDS011;8261;47.678;-122.174;2023-03-12T12:26:48;1.77;;;1.30;;
16304;SDS011;8261;47.678;-122.174;2023-03-12T12:29:31;5.30;;;1.37;;
16304;SDS011;8261;47.678;-122.174;2023-03-12T12:32:16;1.90;;;1.20;;
16304;SDS011;8261;47.678;-122.174;2023-03-12T12:34:55;1.60;;;1.10;;
16304;SDS011;8261;47.678;-122.174;2023-03-12T12:37:41;1.77;;;1.47;;
16304;SDS011;8261;47.678;-122.174;2023-03-12T12:40:20;1.93;;;1.10;;
16304;SDS011;8261;47.678;-122.174;2023-03-12T12:42:57;1.60;;;1.17;;
16304;SDS011;8261;47.678;-122.174;2023-03-12T12:45:33;3.07;;;1.03;;
16304;SDS011;8261;47.678;-122.174;2023-03-12T12:48:13;1.93;;;1.20;;
16304;SDS011;8261;47.678;-122.174;2023-03-12T12:50:50;2.73;;;1.20;;
16304;SDS011;8261;47.678;-122.174;2023-03-12T12:53:28;3.33;;;1.40;;
16304;SDS011;8261;47.678;-122.174;2023-03-12T12:56:08;1.60;;;1.30;;
16304;SDS011;8261;47.678;-122.174;2023-03-12T12:58:51;2.50;;;1.50;;
16304;SDS011;8261;47.678;-122.174;2023-03-12T13:01:32;1.70;;;1.20;;
16304;SDS011;8261;47.678;-122.174;2023-03-12T13:04:08;3.23;;;1.50;;
16304;SDS011;8261;47.678;-122.174;2023-03-12T13:06:53;3.17;;;1.17;;
16304;SDS011;8261;47.678;-122.174;2023-03-12T13:09:37;1.90;;;1.10;;
16304;SDS011;8261;47.678;-122.174;2023-03-12T13:12:17;1.40;;;1.20;;
16304;SDS011;8261;47.678;-122.174;2023-03-12T13:14:51;1.23;;;0.90;;
16304;SDS011;8261;47.678;-122.174;2023-03-12T13:17:26;1.77;;;1.10;;
16304;SDS011;8261;47.678;-122.174;2023-03-12T13:20:11;2.03;;;1.10;;
16304;SDS011;8261;47.678;-122.174;2023-03-12T13:23:02;1.83;;;1.10;;
16304;SDS011;8261;47.678;-122.174;2023-03-12T13:25:43;1.97;;;1.10;;
16304;SDS011;8261;47.678;-122.174;2023-03-12T13:28:29;1.63;;;1.10;;
16304;SDS011;8261;47.678;-122.174;2023-03-12T13:37:03;1.60;;;0.90;;
16304;SDS011;8261;47.678;-122.174;2023-03-12T13:40:01;1.23;;;0.93;;
16304;SDS011;8261;47.678;-122.174;2023-03-12T13:43:00;2.43;;;1.20;;
16304;SDS011;8261;47.678;-122.174;2023-03-12T13:45:38;1.70;;;0.93;;
16304;SDS011;8261;47.678;-122.174;2023-03-12T13:48:23;1.50;;;0.90;;
16304;SDS011;8261;47.678;-122.174;2023-03-12T13:50:56;2.07;;;1.10;;
16304;SDS011;8261;47.678;-122.174;2023-03-12T13:53:34;0.90;;;0.70;;
16304;SDS011;8261;47.678;-122.174;2023-03-12T13:56:09;1.37;;;0.80;;
16304;SDS011;8261;47.678;-122.174;2023-03-12T13:58:47;3.73;;;0.90;;
16304;SDS011;8261;47.678;-122.174;2023-03-12T14:01:21;1.70;;;1.17;;
16304;SDS011;8261;47.678;-122.174;2023-03-12T14:03:56;1.67;;;1.07;;
16304;SDS011;8261;47.678;-122.174;2023-03-12T14:06:31;2.60;;;0.87;;
16304;SDS011;8261;47.678;-122.174;2023-03-12T14:09:22;2.17;;;1.10;;
16304;SDS011;8261;47.678;-122.174;2023-03-12T14:12:07;1.90;;;0.90;;
16304;SDS011;8261;47.678;-122.174;2023-03-12T14:14:48;1.37;;;0.80;;
16304;SDS011;8261;47.678;-122.174;2023-03-12T14:17:32;1.20;;;0.87;;
16304;SDS011;8261;47.678;-122.174;2023-03-12T14:20:10;2.80;;;0.97;;
16304;SDS011;8261;47.678;-122.174;2023-03-12T14:22:48;10.50;;;6.80;;
16304;SDS011;8261;47.678;-122.174;2023-03-12T14:25:30;72.60;;;44.60;;
16304;SDS011;8261;47.678;-122.174;2023-03-12T14:28:09;95.93;;;60.57;;
16304;SDS011;8261;47.678;-122.174;2023-03-12T14:30:47;45.50;;;30.73;;
16304;SDS011;8261;47.678;-122.174;2023-03-12T14:33:22;14.77;;;9.90;;
16304;SDS011;8261;47.678;-122.174;2023-03-12T14:35:56;6.97;;;5.60;;
16304;SDS011;8261;47.678;-122.174;2023-03-12T14:38:33;4.30;;;3.53;;
16304;SDS011;8261;47.678;-122.174;2023-03-12T14:41:11;4.40;;;3.57;;
16304;SDS011;8261;47.678;-122.174;2023-03-12T14:43:50;3.73;;;2.30;;
16304;SDS011;8261;47.678;-122.174;2023-03-12T14:46:23;1.97;;;1.47;;
16304;SDS011;8261;47.678;-122.174;2023-03-12T14:48:55;1.60;;;1.20;;
16304;SDS011;8261;47.678;-122.174;2023-03-12T14:51:27;1.77;;;1.40;;
16304;SDS011;8261;47.678;-122.174;2023-03-12T14:54:01;2.77;;;1.57;;
16304;SDS011;8261;47.678;-122.174;2023-03-12T14:56:35;2.43;;;1.57;;
16304;SDS011;8261;47.678;-122.174;2023-03-12T14:59:19;1.73;;;1.17;;
16304;SDS011;8261;47.678;-122.174;2023-03-12T15:01:54;1.50;;;1.40;;
16304;SDS011;8261;47.678;-122.174;2023-03-12T15:04:29;1.80;;;1.03;;
16304;SDS011;8261;47.678;-122.174;2023-03-12T15:07:04;1.00;;;0.90;;
16304;SDS011;8261;47.678;-122.174;2023-03-12T15:09:40;3.23;;;1.00;;
16304;SDS011;8261;47.678;-122.174;2023-03-12T15:12:19;1.23;;;1.00;;
16304;SDS011;8261;47.678;-122.174;2023-03-12T15:14:52;1.03;;;0.93;;
16304;SDS011;8261;47.678;-122.174;2023-03-12T15:17:26;1.37;;;1.00;;